createdAt,value
2018-06-08T00:00:46.239Z,0
2018-06-08T00:03:46.339Z,0
2018-06-08T00:04:45.812Z,0
2018-06-08T00:06:01.044Z,0
2018-06-08T00:06:46.114Z,0
2018-06-08T00:07:46.393Z,0
2018-06-08T00:08:46.179Z,0
2018-06-08T00:09:46.211Z,0
2018-06-08T00:10:46.499Z,0
2018-06-08T00:11:46.488Z,0
2018-06-08T00:13:01.196Z,0
2018-06-08T00:14:01.190Z,0
2018-06-08T00:14:46.570Z,0
2018-06-08T00:16:01.252Z,0
2018-06-08T00:16:46.632Z,0
2018-06-08T00:17:46.405Z,0
2018-06-08T00:18:46.392Z,0
2018-06-08T00:20:46.697Z,0
2018-06-08T00:22:01.137Z,0
2018-06-08T00:22:46.491Z,0
2018-06-08T00:24:01.198Z,0
2018-06-08T00:24:46.786Z,0
2018-06-08T00:25:46.603Z,0
2018-06-08T00:26:46.856Z,0
2018-06-08T00:27:46.907Z,0
2018-06-08T00:29:01.558Z,0
2018-06-08T00:29:46.937Z,0
2018-06-08T00:30:46.685Z,0
2018-06-08T00:32:01.616Z,0
2018-06-08T00:32:46.760Z,0
2018-06-08T00:33:47.023Z,0
2018-06-08T00:34:47.077Z,0
2018-06-08T00:35:47.059Z,0
2018-06-08T00:36:46.853Z,0
2018-06-08T00:37:46.840Z,0
2018-06-08T00:38:47.142Z,0
2018-06-08T00:39:47.220Z,0
2018-06-08T00:40:47.200Z,0
2018-06-08T00:41:47.241Z,0
2018-06-08T00:42:46.970Z,0
2018-06-08T00:43:46.745Z,0
2018-06-08T00:45:01.926Z,0
2018-06-08T00:45:47.322Z,0
2018-06-08T00:47:01.973Z,0
2018-06-08T00:47:47.383Z,0
2018-06-08T00:48:47.405Z,0
2018-06-08T00:49:47.143Z,0
2018-06-08T00:50:47.419Z,0
2018-06-08T00:51:47.472Z,0
2018-06-08T00:52:47.458Z,0
2018-06-08T00:53:47.522Z,0
2018-06-08T00:54:47.503Z,0
2018-06-08T00:55:47.294Z,0
2018-06-08T00:56:47.549Z,0
2018-06-08T00:57:47.616Z,0
2018-06-08T00:58:47.102Z,0
2018-06-08T01:00:02.303Z,0
2018-06-08T01:00:47.664Z,0
2018-06-08T01:01:47.667Z,0
2018-06-08T01:02:47.469Z,0
2018-06-08T01:03:47.475Z,0
2018-06-08T01:04:47.758Z,0
2018-06-08T01:05:47.542Z,0
2018-06-08T01:07:47.328Z,0
2018-06-08T01:08:47.867Z,0
2018-06-08T01:09:47.890Z,0
2018-06-08T01:10:47.889Z,0
2018-06-08T01:11:47.644Z,0
2018-06-08T01:12:47.970Z,0
2018-06-08T01:14:02.619Z,0
2018-06-08T01:14:48.027Z,0
2018-06-08T01:15:48.007Z,0
2018-06-08T01:16:48.062Z,0
2018-06-08T01:17:48.043Z,0
2018-06-08T01:18:47.831Z,0
2018-06-08T01:19:48.119Z,0
2018-06-08T01:20:48.115Z,0
2018-06-08T01:22:47.810Z,0
2018-06-08T01:23:48.203Z,0
2018-06-08T01:24:48.251Z,0
2018-06-08T01:25:48.245Z,0
2018-06-08T01:26:48.037Z,0
2018-06-08T01:27:48.020Z,0
2018-06-08T01:28:48.320Z,0
2018-06-08T01:29:48.336Z,0
2018-06-08T01:32:03.082Z,0
2018-06-08T01:32:48.152Z,0
2018-06-08T01:34:02.588Z,0
2018-06-08T01:34:48.437Z,0
2018-06-08T01:35:48.485Z,0
2018-06-08T01:36:48.518Z,0
2018-06-08T01:38:02.680Z,0
2018-06-08T01:39:03.229Z,0
2018-06-08T01:40:03.220Z,0
2018-06-08T01:40:48.629Z,0
2018-06-08T01:41:48.605Z,0
2018-06-08T01:42:48.647Z,0
2018-06-08T01:43:48.408Z,0
2018-06-08T01:44:48.462Z,0
2018-06-08T01:45:48.187Z,0
2018-06-08T01:46:48.813Z,0
2018-06-08T01:48:03.412Z,0
2018-06-08T01:48:48.918Z,0
2018-06-08T01:51:03.498Z,0
2018-06-08T01:51:48.856Z,0
2018-06-08T01:52:48.859Z,0
2018-06-08T01:53:48.926Z,0
2018-06-08T01:55:03.578Z,4
2018-06-08T01:55:48.977Z,4
2018-06-08T01:56:48.990Z,4
2018-06-08T01:57:48.739Z,0
2018-06-08T01:58:49.020Z,0
2018-06-08T01:59:49.023Z,4
2018-06-08T02:00:49.095Z,4
2018-06-08T02:01:49.088Z,4
2018-06-08T02:02:49.152Z,4
2018-06-08T02:04:03.797Z,8
2018-06-08T02:04:49.192Z,4
2018-06-08T02:05:49.166Z,8
2018-06-08T02:06:49.206Z,8
2018-06-08T02:07:49.246Z,8
2018-06-08T02:08:49.023Z,8
2018-06-08T02:09:49.298Z,12
2018-06-08T02:10:49.303Z,12
2018-06-08T02:11:49.056Z,12
2018-06-08T02:12:49.376Z,16
2018-06-08T02:13:49.358Z,12
2018-06-08T02:15:04.075Z,20
2018-06-08T02:15:49.137Z,20
2018-06-08T02:16:49.199Z,24
2018-06-08T02:17:49.471Z,24
2018-06-08T02:18:49.501Z,28
2018-06-08T02:20:04.184Z,32
2018-06-08T02:20:49.258Z,36
2018-06-08T02:22:49.560Z,40
2018-06-08T02:24:04.247Z,48
2018-06-08T02:24:49.369Z,52
2018-06-08T02:25:49.661Z,60
2018-06-08T02:26:49.713Z,64
2018-06-08T02:27:49.682Z,72
2018-06-08T02:28:49.747Z,80
2018-06-08T02:29:49.464Z,88
2018-06-08T02:30:49.789Z,96
2018-06-08T02:32:04.436Z,112
2018-06-08T02:32:49.864Z,120
2018-06-08T02:33:49.862Z,128
2018-06-08T02:35:04.506Z,144
2018-06-08T02:37:49.777Z,180
2018-06-08T02:38:49.688Z,196
2018-06-08T02:39:50.004Z,216
2018-06-08T02:41:04.388Z,232
2018-06-08T02:42:04.437Z,252
2018-06-08T02:42:49.805Z,268
2018-06-08T02:43:49.833Z,288
2018-06-08T02:44:50.107Z,308
2018-06-08T02:45:49.621Z,332
2018-06-08T02:46:50.114Z,356
2018-06-08T02:47:50.143Z,380
2018-06-08T02:48:50.227Z,408
2018-06-08T02:49:50.220Z,440
2018-06-08T02:50:49.473Z,464
2018-06-08T02:51:49.723Z,496
2018-06-08T02:52:50.306Z,532
2018-06-08T02:53:50.284Z,564
2018-06-08T02:54:50.350Z,596
2018-06-08T02:55:50.332Z,632
2018-06-08T02:56:50.145Z,672
2018-06-08T02:57:50.402Z,712
2018-06-08T02:58:50.424Z,752
2018-06-08T02:59:50.416Z,792
2018-06-08T03:01:05.101Z,844
2018-06-08T03:02:05.166Z,888
2018-06-08T03:02:50.235Z,924
2018-06-08T03:03:50.570Z,968
2018-06-08T03:04:50.313Z,1016
2018-06-08T03:07:04.991Z,1128
2018-06-08T03:07:50.624Z,1168
2018-06-08T03:08:50.382Z,1220
2018-06-08T03:09:50.695Z,1276
2018-06-08T03:10:50.680Z,1328
2018-06-08T03:13:05.403Z,1460
2018-06-08T03:15:05.460Z,1576
2018-06-08T03:16:05.477Z,1640
2018-06-08T03:16:50.832Z,1684
2018-06-08T03:18:50.855Z,1812
2018-06-08T03:19:50.661Z,1876
2018-06-08T03:20:50.390Z,1936
2018-06-08T03:21:50.967Z,2000
2018-06-08T03:24:51.020Z,2200
2018-06-08T03:26:51.072Z,2332
2018-06-08T03:27:51.064Z,2396
2018-06-08T03:28:50.865Z,2464
2018-06-08T03:29:50.614Z,2532
2018-06-08T03:30:51.170Z,2604
2018-06-08T03:32:05.818Z,2684
2018-06-08T03:32:50.915Z,2740
2018-06-08T03:33:50.717Z,2808
2018-06-08T03:34:51.251Z,2880
2018-06-08T03:35:51.359Z,2952
2018-06-08T03:36:51.322Z,3020
2018-06-08T03:38:05.962Z,3112
2018-06-08T03:39:06.022Z,3252
2018-06-08T03:40:05.506Z,3352
2018-06-08T03:40:51.366Z,3592
2018-06-08T03:41:51.428Z,4200
2018-06-08T03:42:51.145Z,3904
2018-06-08T03:43:51.457Z,3608
2018-06-08T03:45:51.515Z,3900
2018-06-08T03:46:51.284Z,3896
2018-06-08T03:47:51.524Z,4056
2018-06-08T03:49:06.270Z,4104
2018-06-08T03:50:05.972Z,4344
2018-06-08T03:50:51.343Z,4316
2018-06-08T03:52:06.307Z,4152
2018-06-08T03:52:51.397Z,4220
2018-06-08T03:53:51.444Z,4288
2018-06-08T03:55:21.073Z,4864
2018-06-08T03:55:51.488Z,5088
2018-06-08T03:56:51.478Z,4996
2018-06-08T03:57:51.760Z,4820
2018-06-08T03:58:51.547Z,4884
2018-06-08T03:59:51.576Z,4948
2018-06-08T04:00:51.873Z,4908
2018-06-08T04:01:51.336Z,6260
2018-06-08T04:02:51.901Z,6980
2018-06-08T04:03:51.669Z,5668
2018-06-08T04:06:06.634Z,6472
2018-06-08T04:06:51.966Z,6300
2018-06-08T04:07:51.995Z,6352
2018-06-08T04:08:52.043Z,14880
2018-06-08T04:10:21.364Z,39648
2018-06-08T04:10:51.840Z,42048
2018-06-08T04:11:51.842Z,44448
2018-06-08T04:13:06.274Z,45152
2018-06-08T04:13:52.140Z,45824
2018-06-08T04:14:52.167Z,47104
2018-06-08T04:16:06.868Z,46752
2018-06-08T04:16:52.235Z,46848
2018-06-08T04:18:52.018Z,48864
2018-06-08T04:19:52.322Z,47200
2018-06-08T04:21:06.962Z,48352
2018-06-08T04:21:52.335Z,46816
2018-06-08T04:22:52.384Z,46176
2018-06-08T04:23:52.418Z,49696
2018-06-08T04:24:52.197Z,50912
2018-06-08T04:25:52.747Z,50080
2018-06-08T04:26:52.493Z,51104
2018-06-08T04:27:52.490Z,51392
2018-06-08T04:28:52.563Z,49440
2018-06-08T04:29:52.549Z,51936
2018-06-08T04:31:07.265Z,52480
2018-06-08T04:31:52.101Z,52256
2018-06-08T04:32:52.512Z,54496
2018-06-08T04:33:52.445Z,52800
2018-06-08T04:34:52.741Z,51712
2018-06-08T04:36:07.135Z,54208
2018-06-08T04:36:52.772Z,54400
2018-06-08T04:37:52.770Z,56288
2018-06-08T04:38:52.589Z,56000
2018-06-08T04:39:52.585Z,56160
2018-06-08T04:40:52.643Z,57152
2018-06-08T04:42:07.587Z,57248
2018-06-08T04:42:52.943Z,58624
2018-06-08T04:43:52.967Z,60000
2018-06-08T04:44:53.027Z,64512
2018-06-08T04:45:52.762Z,64416
2018-06-08T04:46:52.838Z,63936
2018-06-08T04:47:53.081Z,64096
2018-06-08T04:48:53.136Z,64352
2018-06-08T04:49:53.152Z,67840
2018-06-08T04:50:53.218Z,67168
2018-06-08T04:51:53.420Z,68000
2018-06-08T04:52:53.250Z,70336
2018-06-08T04:54:07.957Z,70368
2018-06-08T04:54:52.781Z,70752
2018-06-08T04:56:53.390Z,70496
2018-06-08T04:58:08.081Z,72480
2018-06-08T04:58:53.441Z,73952
2018-06-08T04:59:53.513Z,74752
2018-06-08T05:00:53.503Z,74880
2018-06-08T05:01:53.580Z,73920
2018-06-08T05:02:53.574Z,72384
2018-06-08T05:03:53.642Z,70208
2018-06-08T05:05:08.294Z,73248
2018-06-08T05:05:53.675Z,75936
2018-06-08T05:06:53.735Z,76480
2018-06-08T05:07:53.754Z,79040
2018-06-08T05:09:08.463Z,77888
2018-06-08T05:09:54.015Z,80896
2018-06-08T05:10:53.629Z,82752
2018-06-08T05:11:53.880Z,81440
2018-06-08T05:12:53.660Z,81504
2018-06-08T05:14:08.353Z,78912
2018-06-08T05:14:54.102Z,80736
2018-06-08T05:16:08.175Z,82560
2018-06-08T05:17:08.448Z,83232
2018-06-08T05:17:54.116Z,82912
2018-06-08T05:18:54.112Z,83424
2018-06-08T05:19:54.162Z,82208
2018-06-08T05:21:08.859Z,80160
2018-06-08T05:21:54.244Z,81952
2018-06-08T05:22:54.297Z,83136
2018-06-08T05:23:54.285Z,83136
2018-06-08T05:24:54.351Z,83584
2018-06-08T05:25:54.387Z,83520
2018-06-08T05:26:54.393Z,85632
2018-06-08T05:28:54.210Z,81408
2018-06-08T05:30:09.166Z,83520
2018-06-08T05:30:54.325Z,82560
2018-06-08T05:31:54.461Z,87360
2018-06-08T05:32:54.390Z,90016
2018-06-08T05:33:54.639Z,92320
2018-06-08T05:34:54.717Z,95904
2018-06-08T05:36:08.899Z,91712
2018-06-08T05:36:54.773Z,88256
2018-06-08T05:37:54.543Z,89824
2018-06-08T05:38:54.610Z,90176
2018-06-08T05:39:54.906Z,94368
2018-06-08T05:40:54.900Z,94176
2018-06-08T05:42:09.622Z,96192
2018-06-08T05:42:54.967Z,93184
2018-06-08T05:44:09.691Z,92192
2018-06-08T05:45:09.456Z,96064
2018-06-08T05:45:55.116Z,95296
2018-06-08T05:46:55.168Z,94304
2018-06-08T05:48:09.889Z,92448
2018-06-08T05:48:54.970Z,91904
2018-06-08T05:49:55.013Z,96480
2018-06-08T05:50:55.029Z,94272
2018-06-08T05:51:55.297Z,96672
2018-06-08T05:53:10.032Z,94112
2018-06-08T05:53:55.536Z,95008
2018-06-08T05:54:55.445Z,98464
2018-06-08T05:56:55.542Z,96448
2018-06-08T05:57:55.274Z,95168
2018-06-08T05:58:55.342Z,94688
2018-06-08T05:59:55.598Z,94336
2018-06-08T06:00:55.395Z,96608
2018-06-08T06:01:55.683Z,97984
2018-06-08T06:02:55.756Z,97312
2018-06-08T06:04:10.445Z,99392
2018-06-08T06:04:55.783Z,98272
2018-06-08T06:05:55.847Z,97856
2018-06-08T06:06:55.345Z,97600
2018-06-08T06:08:10.627Z,93664
2018-06-08T06:08:55.932Z,96960
2018-06-08T06:09:56.018Z,100576
2018-06-08T06:10:56.088Z,99360
2018-06-08T06:11:56.075Z,99104
2018-06-08T06:12:56.103Z,95584
2018-06-08T06:13:56.131Z,90944
2018-06-08T06:14:56.068Z,94880
2018-06-08T06:15:55.964Z,98240
2018-06-08T06:17:10.936Z,96544
2018-06-08T06:17:56.064Z,96320
2018-06-08T06:18:56.377Z,95168
2018-06-08T06:19:56.411Z,96224
2018-06-08T06:20:56.554Z,99392
2018-06-08T06:21:56.468Z,99552
2018-06-08T06:23:11.140Z,96704
2018-06-08T06:24:56.073Z,96672
2018-06-08T06:26:11.254Z,97888
2018-06-08T06:26:56.408Z,99488
2018-06-08T06:27:56.707Z,100640
2018-06-08T06:28:56.452Z,99744
2018-06-08T06:30:11.174Z,99488
2018-06-08T06:30:56.536Z,97440
2018-06-08T06:31:56.855Z,97344
2018-06-08T06:33:11.268Z,96320
2018-06-08T06:33:56.683Z,96672
2018-06-08T06:34:56.945Z,93856
2018-06-08T06:36:11.673Z,91040
2018-06-08T06:36:57.079Z,93536
2018-06-08T06:38:11.761Z,99008
2018-06-08T06:38:57.118Z,100640
2018-06-08T06:39:57.186Z,97056
2018-06-08T06:40:57.179Z,91520
2018-06-08T06:41:56.708Z,90528
2018-06-08T06:42:57.266Z,91552
2018-06-08T06:44:11.986Z,94496
2018-06-08T06:44:57.560Z,95488
2018-06-08T06:46:12.037Z,95936
2018-06-08T06:46:57.450Z,97152
2018-06-08T06:47:57.205Z,96704
2018-06-08T06:49:11.905Z,95264
2018-06-08T06:49:57.035Z,94624
2018-06-08T06:51:57.661Z,91264
2018-06-08T06:52:57.686Z,89376
2018-06-08T06:54:12.192Z,88896
2018-06-08T06:54:57.765Z,88032
2018-06-08T06:56:57.832Z,88640
2018-06-08T06:57:57.590Z,87520
2018-06-08T06:58:57.779Z,86304
2018-06-08T07:00:57.471Z,85728
2018-06-08T07:02:58.049Z,80864
2018-06-08T07:03:58.130Z,74720
2018-06-08T07:05:27.449Z,76832
2018-06-08T07:05:58.163Z,78112
2018-06-08T07:06:58.243Z,78240
2018-06-08T07:07:58.256Z,75584
2018-06-08T07:08:58.317Z,78944
2018-06-08T07:09:58.315Z,84288
2018-06-08T07:11:13.051Z,86208
2018-06-08T07:12:13.069Z,80096
2018-06-08T07:12:58.545Z,78336
2018-06-08T07:13:58.503Z,77472
2018-06-08T07:14:58.545Z,81984
2018-06-08T07:15:58.574Z,84288
2018-06-08T07:16:58.373Z,83040
2018-06-08T07:17:58.393Z,81056
2018-06-08T07:18:58.193Z,79712
2018-06-08T07:20:28.045Z,80448
2018-06-08T07:22:13.208Z,81792
2018-06-08T07:22:58.894Z,80000
2018-06-08T07:23:58.914Z,79200
2018-06-08T07:24:59.024Z,75872
2018-06-08T07:25:58.735Z,75104
2018-06-08T07:27:59.033Z,77600
2018-06-08T07:28:59.108Z,76896
2018-06-08T07:29:59.112Z,75680
2018-06-08T07:31:13.587Z,74624
2018-06-08T07:31:58.739Z,73280
2018-06-08T07:33:13.929Z,75200
2018-06-08T07:33:59.370Z,73248
2018-06-08T07:36:14.051Z,76672
2018-06-08T07:36:59.394Z,76704
2018-06-08T07:37:59.459Z,73984
2018-06-08T07:38:58.965Z,72864
2018-06-08T07:40:14.404Z,71488
2018-06-08T07:40:59.076Z,72096
2018-06-08T07:41:59.366Z,73344
2018-06-08T07:43:59.674Z,66336
2018-06-08T07:44:59.742Z,69504
2018-06-08T07:46:14.439Z,69824
2018-06-08T07:46:59.814Z,69280
2018-06-08T07:47:59.593Z,66912
2018-06-08T07:49:59.921Z,67840
2018-06-08T07:50:59.995Z,67392
2018-06-08T07:52:14.665Z,67968
2018-06-08T07:53:00.058Z,67968
2018-06-08T07:54:14.873Z,66880
2018-06-08T07:55:14.772Z,67360
2018-06-08T07:56:00.133Z,67136
2018-06-08T07:57:00.195Z,69120
2018-06-08T07:58:00.272Z,70176
2018-06-08T07:59:14.705Z,69344
2018-06-08T08:00:00.314Z,68768
2018-06-08T08:01:00.141Z,66944
2018-06-08T08:02:15.069Z,63648
2018-06-08T08:03:00.466Z,64864
2018-06-08T08:04:15.144Z,65216
2018-06-08T08:05:00.543Z,62176
2018-06-08T08:06:14.978Z,63616
2018-06-08T08:07:00.593Z,66112
2018-06-08T08:08:15.326Z,63808
2018-06-08T08:10:00.196Z,61344
2018-06-08T08:11:00.248Z,62944
2018-06-08T08:12:00.569Z,61760
2018-06-08T08:14:00.914Z,61824
2018-06-08T08:15:00.917Z,60544
2018-06-08T08:16:00.983Z,64032
2018-06-08T08:17:00.989Z,65504
2018-06-08T08:18:01.065Z,63840
2018-06-08T08:19:01.054Z,61280
2018-06-08T08:20:15.776Z,61152
2018-06-08T08:21:01.169Z,60832
2018-06-08T08:22:01.215Z,60384
2018-06-08T08:24:15.917Z,58688
2018-06-08T08:25:01.344Z,60448
2018-06-08T08:26:01.336Z,60576
2018-06-08T08:27:01.401Z,60192
2018-06-08T08:28:01.176Z,59680
2018-06-08T08:29:01.455Z,60416
2018-06-08T08:30:01.225Z,58016
2018-06-08T08:31:01.614Z,54560
2018-06-08T08:32:15.968Z,55552
2018-06-08T08:33:01.125Z,54112
2018-06-08T08:34:01.659Z,53056
2018-06-08T08:35:01.724Z,50752
2018-06-08T08:36:01.198Z,49856
2018-06-08T08:37:01.822Z,51296
2018-06-08T08:38:16.487Z,38208
2018-06-08T08:39:01.859Z,27296
2018-06-08T08:40:16.271Z,19904
2018-06-08T08:41:01.949Z,19168
2018-06-08T08:42:01.951Z,18816
2018-06-08T08:43:16.150Z,18592
2018-06-08T08:44:01.785Z,18400
2018-06-08T08:45:02.085Z,18304
2018-06-08T08:46:01.834Z,18112
2018-06-08T08:47:02.143Z,18016
2018-06-08T08:49:16.878Z,17728
2018-06-08T08:50:02.345Z,17664
2018-06-08T08:51:02.302Z,17600
2018-06-08T08:52:02.170Z,17472
2018-06-08T08:53:02.360Z,17440
2018-06-08T08:54:02.424Z,17180
2018-06-08T08:55:17.115Z,17000
2018-06-08T08:56:02.509Z,16964
2018-06-08T08:57:02.872Z,16868
2018-06-08T08:58:02.549Z,16796
2018-06-08T08:59:02.616Z,16744
2018-06-08T09:00:02.629Z,16648
2018-06-08T09:01:02.465Z,16608
2018-06-08T09:02:17.373Z,16496
2018-06-08T09:03:02.519Z,16388
2018-06-08T09:04:02.813Z,16280
2018-06-08T09:05:02.827Z,16220
2018-06-08T09:06:02.863Z,16208
2018-06-08T09:07:02.936Z,16160
2018-06-08T09:08:02.943Z,16048
2018-06-08T09:09:02.730Z,15952
2018-06-08T09:10:02.994Z,15836
2018-06-08T09:11:03.078Z,15732
2018-06-08T09:12:03.080Z,15676
2018-06-08T09:13:03.153Z,15616
2018-06-08T09:14:02.902Z,15568
2018-06-08T09:15:03.229Z,15520
2018-06-08T09:16:03.224Z,15452
2018-06-08T09:17:03.272Z,15392
2018-06-08T09:18:03.314Z,15356
2018-06-08T09:19:03.373Z,15292
2018-06-08T09:20:03.406Z,15184
2018-06-08T09:21:03.425Z,15084
2018-06-08T09:22:18.118Z,14940
2018-06-08T09:23:18.138Z,14876
2018-06-08T09:24:03.542Z,14836
2018-06-08T09:25:03.082Z,14804
2018-06-08T09:26:03.364Z,14748
2018-06-08T09:28:03.670Z,14540
2018-06-08T09:29:03.464Z,14480
2018-06-08T09:30:03.747Z,14420
2018-06-08T09:31:03.558Z,14372
2018-06-08T09:33:03.628Z,14204
2018-06-08T09:34:03.637Z,14112
2018-06-08T09:35:03.669Z,13968
2018-06-08T09:36:03.996Z,13976
2018-06-08T09:37:04.028Z,13908
2018-06-08T09:38:04.021Z,13896
2018-06-08T09:39:18.742Z,13836
2018-06-08T09:40:04.480Z,13784
2018-06-08T09:41:03.631Z,13740
2018-06-08T09:42:03.913Z,13632
2018-06-08T09:43:18.892Z,13580
2018-06-08T09:44:04.014Z,13508
2018-06-08T09:45:04.011Z,13508
2018-06-08T09:46:18.491Z,13416
2018-06-08T09:47:04.080Z,13344
2018-06-08T09:48:19.055Z,13260
2018-06-08T09:49:04.166Z,13212
2018-06-08T09:50:04.490Z,13136
2018-06-08T09:51:04.263Z,13064
2018-06-08T09:52:04.019Z,13044
2018-06-08T09:53:04.581Z,13040
2018-06-08T09:54:04.588Z,12972
2018-06-08T09:55:04.412Z,12948
2018-06-08T09:57:04.478Z,12852
2018-06-08T09:58:04.492Z,12828
2018-06-08T09:59:19.461Z,12800
2018-06-08T10:00:19.506Z,12788
2018-06-08T10:01:04.896Z,12720
2018-06-08T10:02:19.642Z,12708
2018-06-08T10:03:04.427Z,12664
2018-06-08T10:04:04.698Z,12564
2018-06-08T10:05:04.477Z,12556
2018-06-08T10:06:05.031Z,12416
2018-06-08T10:07:04.841Z,12388
2018-06-08T10:08:05.125Z,12344
2018-06-08T10:09:19.800Z,12352
2018-06-08T10:10:05.190Z,12356
2018-06-08T10:11:05.189Z,12332
2018-06-08T10:12:05.016Z,12300
2018-06-08T10:13:05.272Z,12220
2018-06-08T10:15:19.760Z,12112
2018-06-08T10:16:05.392Z,12112
2018-06-08T10:17:05.419Z,12048
2018-06-08T10:18:05.437Z,11992
2018-06-08T10:19:05.516Z,11980
2018-06-08T10:20:05.265Z,11872
2018-06-08T10:21:05.061Z,11836
2018-06-08T10:22:05.141Z,11836
2018-06-08T10:23:05.763Z,11864
2018-06-08T10:24:05.646Z,11820
2018-06-08T10:25:05.460Z,11788
2018-06-08T10:26:05.719Z,11776
2018-06-08T10:27:05.532Z,11748
2018-06-08T10:28:05.820Z,11652
2018-06-08T10:29:05.579Z,11604
2018-06-08T10:30:20.557Z,11568
2018-06-08T10:31:05.675Z,11576
2018-06-08T10:33:06.005Z,11528
2018-06-08T10:34:06.176Z,11508
2018-06-08T10:35:05.809Z,11412
2018-06-08T10:36:05.810Z,11372
2018-06-08T10:37:05.881Z,11336
2018-06-08T10:38:06.164Z,11232
2018-06-08T10:39:20.853Z,11236
2018-06-08T10:40:06.051Z,11112
2018-06-08T10:41:05.820Z,11092
2018-06-08T10:42:20.968Z,11024
2018-06-08T10:44:06.395Z,11048
2018-06-08T10:45:05.916Z,11048
2018-06-08T10:46:06.439Z,11064
2018-06-08T10:47:06.471Z,11064
2018-06-08T10:48:06.490Z,11000
2018-06-08T10:49:06.574Z,10948
2018-06-08T10:50:21.229Z,10876
2018-06-08T10:51:21.278Z,10848
2018-06-08T10:52:06.444Z,10808
2018-06-08T10:53:21.333Z,10736
2018-06-08T10:54:06.437Z,10692
2018-06-08T10:55:06.771Z,10636
2018-06-08T10:56:06.801Z,10588
2018-06-08T10:57:06.813Z,10544
2018-06-08T10:58:21.235Z,10536
2018-06-08T10:59:06.631Z,10516
2018-06-08T11:00:06.106Z,10488
2018-06-08T11:01:06.700Z,10436
2018-06-08T11:02:21.643Z,10360
2018-06-08T11:03:07.013Z,10324
2018-06-08T11:04:06.791Z,10280
2018-06-08T11:05:07.055Z,10308
2018-06-08T11:07:06.603Z,10260
2018-06-08T11:08:21.847Z,10232
2018-06-08T11:09:06.953Z,10268
2018-06-08T11:10:06.991Z,10204
2018-06-08T11:11:06.994Z,10116
2018-06-08T11:12:21.956Z,10052
2018-06-08T11:13:07.361Z,9936
2018-06-08T11:14:07.363Z,9744
2018-06-08T11:15:07.433Z,9564
2018-06-08T11:16:22.075Z,9316
2018-06-08T11:17:07.491Z,9172
2018-06-08T11:18:22.147Z,8944
2018-06-08T11:19:07.523Z,8852
2018-06-08T11:20:07.317Z,8704
2018-06-08T11:21:07.344Z,8520
2018-06-08T11:22:06.834Z,8396
2018-06-08T11:23:07.692Z,8280
2018-06-08T11:24:07.716Z,8132
2018-06-08T11:25:22.162Z,7988
2018-06-08T11:26:07.768Z,7888
2018-06-08T11:27:08.056Z,7800
2018-06-08T11:28:07.844Z,7740
2018-06-08T11:29:07.603Z,7656
2018-06-08T11:30:07.886Z,7628
2018-06-08T11:31:07.683Z,7620
2018-06-08T11:32:07.724Z,7516
2018-06-08T11:34:22.700Z,7404
2018-06-08T11:35:08.027Z,7332
2018-06-08T11:36:08.100Z,7244
2018-06-08T11:37:07.856Z,7160
2018-06-08T11:38:08.187Z,7092
2018-06-08T11:39:08.203Z,7020
2018-06-08T11:40:22.611Z,6844
2018-06-08T11:41:08.241Z,6804
2018-06-08T11:43:07.806Z,6604
2018-06-08T11:44:22.723Z,6508
2018-06-08T11:45:07.605Z,6476
2018-06-08T11:46:07.889Z,6432
2018-06-08T11:47:07.924Z,6340
2018-06-08T11:49:08.259Z,6276
2018-06-08T11:50:23.176Z,6216
2018-06-08T11:51:08.603Z,6188
2018-06-08T11:52:08.315Z,6120
2018-06-08T11:53:08.663Z,6112
2018-06-08T11:54:08.646Z,6084
2018-06-08T11:55:08.716Z,6044
2018-06-08T11:56:23.402Z,5996
2018-06-08T11:57:08.489Z,5976
2018-06-08T11:58:08.262Z,5972
2018-06-08T12:00:08.609Z,5928
2018-06-08T12:01:08.113Z,5920
2018-06-08T12:02:08.668Z,5924
2018-06-08T12:03:08.697Z,5908
2018-06-08T12:04:08.444Z,5888
2018-06-08T12:05:23.419Z,5936
2018-06-08T12:06:09.067Z,5952
2018-06-08T12:07:09.069Z,5980
2018-06-08T12:08:08.579Z,5996
2018-06-08T12:09:08.979Z,6032
2018-06-08T12:10:08.767Z,6060
2018-06-08T12:11:09.199Z,6180
2018-06-08T12:12:08.995Z,6248
2018-06-08T12:13:08.735Z,6276
2018-06-08T12:14:09.056Z,6324
2018-06-08T12:15:09.061Z,6332
2018-06-08T12:16:09.095Z,6332
2018-06-08T12:18:24.083Z,6376
2018-06-08T12:19:09.171Z,6380
2018-06-08T12:20:09.510Z,6372
2018-06-08T12:21:09.262Z,6380
2018-06-08T12:22:09.579Z,6368
2018-06-08T12:23:09.315Z,6348
2018-06-08T12:24:09.540Z,6316
2018-06-08T12:25:09.673Z,6328
2018-06-08T12:26:09.697Z,6268
2018-06-08T12:27:09.433Z,6224
2018-06-08T12:28:09.510Z,6184
2018-06-08T12:29:24.454Z,6116
2018-06-08T12:30:09.837Z,6104
2018-06-08T12:31:09.639Z,6048
2018-06-08T12:32:09.601Z,6052
2018-06-08T12:34:09.665Z,6060
2018-06-08T12:35:09.466Z,6040
2018-06-08T12:36:10.191Z,6048
2018-06-08T12:37:24.709Z,5996
2018-06-08T12:38:10.039Z,5988
2018-06-08T12:39:10.070Z,5980
2018-06-08T12:40:10.142Z,5972
2018-06-08T12:41:10.158Z,5976
2018-06-08T12:42:10.186Z,5976
2018-06-08T12:43:09.717Z,5980
2018-06-08T12:44:10.224Z,5992
2018-06-08T12:45:24.951Z,6036
2018-06-08T12:46:10.332Z,6036
2018-06-08T12:47:10.083Z,6036
2018-06-08T12:48:10.363Z,6036
2018-06-08T12:49:10.478Z,6048
2018-06-08T12:50:09.927Z,6048
2018-06-08T12:51:09.946Z,6060
2018-06-08T12:53:25.177Z,6052
2018-06-08T12:54:10.569Z,6048
2018-06-08T12:55:10.323Z,6028
2018-06-08T12:56:25.261Z,6056
2018-06-08T12:57:10.672Z,6080
2018-06-08T12:58:24.814Z,6092
2018-06-08T12:59:10.477Z,6112
2018-06-08T13:00:09.960Z,6124
2018-06-08T13:01:10.543Z,6124
2018-06-08T13:02:10.533Z,6128
2018-06-08T13:03:10.643Z,6132
2018-06-08T13:04:10.605Z,6124
2018-06-08T13:05:10.927Z,6112
2018-06-08T13:06:10.957Z,6104
2018-06-08T13:07:10.710Z,6124
2018-06-08T13:08:10.728Z,6120
2018-06-08T13:09:25.700Z,6108
2018-06-08T13:10:25.704Z,6100
2018-06-08T13:11:10.852Z,6100
2018-06-08T13:12:10.586Z,6100
2018-06-08T13:13:10.889Z,6124
2018-06-08T13:14:10.658Z,6140
2018-06-08T13:15:11.243Z,6120
2018-06-08T13:16:10.743Z,6140
2018-06-08T13:17:11.516Z,6148
2018-06-08T13:18:11.054Z,6156
2018-06-08T13:19:25.722Z,6152
2018-06-08T13:20:25.757Z,6160
2018-06-08T13:21:11.206Z,6156
2018-06-08T13:22:11.450Z,6136
2018-06-08T13:23:11.226Z,6120
2018-06-08T13:24:11.482Z,6128
2018-06-08T13:25:25.933Z,6140
2018-06-08T13:26:11.543Z,6136
2018-06-08T13:27:11.588Z,6156
2018-06-08T13:28:11.368Z,6152
2018-06-08T13:29:11.678Z,6152
2018-06-08T13:30:11.183Z,6152
2018-06-08T13:31:26.361Z,6128
2018-06-08T13:32:11.750Z,6132
2018-06-08T13:33:11.758Z,6136
2018-06-08T13:34:11.818Z,6152
2018-06-08T13:35:11.816Z,6156
2018-06-08T13:36:26.539Z,6156
2018-06-08T13:37:11.624Z,6160
2018-06-08T13:38:11.699Z,6160
2018-06-08T13:39:11.717Z,6168
2018-06-08T13:40:26.665Z,6176
2018-06-08T13:41:12.004Z,6184
2018-06-08T13:42:12.075Z,6188
2018-06-08T13:43:12.072Z,6188
2018-06-08T13:44:11.867Z,6188
2018-06-08T13:45:12.219Z,6184
2018-06-08T13:46:11.939Z,6168
2018-06-08T13:47:11.953Z,6148
2018-06-08T13:48:11.994Z,6144
2018-06-08T13:49:26.912Z,6144
2018-06-08T13:50:12.322Z,6132
2018-06-08T13:51:12.315Z,6144
2018-06-08T13:52:12.375Z,6164
2018-06-08T13:53:12.125Z,6184
2018-06-08T13:54:12.172Z,6216
2018-06-08T13:55:12.177Z,6224
2018-06-08T13:56:11.993Z,6204
2018-06-08T13:57:11.998Z,6188
2018-06-08T13:58:12.558Z,6188
2018-06-08T13:59:12.302Z,6172
2018-06-08T14:00:12.592Z,6188
2018-06-08T14:01:12.401Z,6244
2018-06-08T14:02:12.846Z,6228
2018-06-08T14:03:12.690Z,6220
2018-06-08T14:04:12.498Z,6192
2018-06-08T14:05:12.492Z,6176
2018-06-08T14:06:12.555Z,6176
2018-06-08T14:07:27.481Z,6192
2018-06-08T14:08:12.867Z,6172
2018-06-08T14:09:12.626Z,6180
2018-06-08T14:10:12.909Z,6188
2018-06-08T14:11:12.705Z,6200